Terminal Aerodrome Forecast
Issued by NWS

Home | Current Version | Previous Version | Text Only | Print | Product List | Glossary On
Versions: 1 2 3 4 5 6 7 8 9 10 11 12 13 14 15 16 17 18 19 20 21 22 23 24 25 26 27 28 29 30 31 32 33 34
000
FTUS44 KHGX 161349 AAB
TAFLBX
TAF AMD
KLBX 161349Z 1614/1712 10005KT 5SM BR VCSH SCT015 OVC060
      TEMPO 1614/1615 2SM SHRA BR BKN015
     FM161500 11008KT P6SM VCSH BKN015 OVC035
     FM161800 13009KT 6SM BR VCSH OVC008
     FM170000 13009KT 5SM BR VCSH OVC007
     FM170700 17006KT 1SM -DZ BR OVC002=

USA.gov is the U.S. government's official web portal to all federal, state and local government web resources and services.